sensor_id;sensor_type;location;lat;lon;timestamp;P1;durP1;ratioP1;P2;durP2;ratioP2
9906;SDS011;4992;51.628;6.664;2022-08-16T00:00:25;3.65;;;2.97;;
9906;SDS011;4992;51.628;6.664;2022-08-16T00:02:53;5.38;;;3.17;;
9906;SDS011;4992;51.628;6.664;2022-08-16T00:05:20;3.20;;;2.90;;
9906;SDS011;4992;51.628;6.664;2022-08-16T00:07:48;5.15;;;2.42;;
9906;SDS011;4992;51.628;6.664;2022-08-16T00:10:14;3.65;;;3.00;;
9906;SDS011;4992;51.628;6.664;2022-08-16T00:12:40;4.55;;;2.95;;
9906;SDS011;4992;51.628;6.664;2022-08-16T00:15:11;3.20;;;2.25;;
9906;SDS011;4992;51.628;6.664;2022-08-16T00:17:41;4.10;;;2.92;;
9906;SDS011;4992;51.628;6.664;2022-08-16T00:20:07;3.10;;;2.80;;
9906;SDS011;4992;51.628;6.664;2022-08-16T00:22:34;3.92;;;2.80;;
9906;SDS011;4992;51.628;6.664;2022-08-16T00:25:00;2.97;;;2.60;;
9906;SDS011;4992;51.628;6.664;2022-08-16T00:27:26;7.13;;;3.30;;
9906;SDS011;4992;51.628;6.664;2022-08-16T00:29:52;6.55;;;2.80;;
9906;SDS011;4992;51.628;6.664;2022-08-16T00:32:18;3.22;;;2.92;;
9906;SDS011;4992;51.628;6.664;2022-08-16T00:34:44;6.45;;;3.30;;
9906;SDS011;4992;51.628;6.664;2022-08-16T00:37:10;4.32;;;2.72;;
9906;SDS011;4992;51.628;6.664;2022-08-16T00:39:36;4.30;;;2.78;;
9906;SDS011;4992;51.628;6.664;2022-08-16T00:42:02;4.30;;;3.15;;
9906;SDS011;4992;51.628;6.664;2022-08-16T00:44:27;5.07;;;2.90;;
9906;SDS011;4992;51.628;6.664;2022-08-16T00:47:02;4.28;;;3.13;;
9906;SDS011;4992;51.628;6.664;2022-08-16T00:49:30;3.83;;;2.80;;
9906;SDS011;4992;51.628;6.664;2022-08-16T00:51:57;4.70;;;3.15;;
9906;SDS011;4992;51.628;6.664;2022-08-16T00:54:24;4.75;;;3.42;;
9906;SDS011;4992;51.628;6.664;2022-08-16T00:56:53;3.70;;;3.13;;
9906;SDS011;4992;51.628;6.664;2022-08-16T00:59:21;4.35;;;3.13;;
9906;SDS011;4992;51.628;6.664;2022-08-16T01:01:48;6.32;;;3.13;;
9906;SDS011;4992;51.628;6.664;2022-08-16T01:04:16;4.45;;;3.28;;
9906;SDS011;4992;51.628;6.664;2022-08-16T01:06:46;6.03;;;3.45;;
9906;SDS011;4992;51.628;6.664;2022-08-16T01:09:12;5.35;;;3.40;;
9906;SDS011;4992;51.628;6.664;2022-08-16T01:11:38;3.95;;;3.30;;
9906;SDS011;4992;51.628;6.664;2022-08-16T01:14:08;3.70;;;3.10;;
9906;SDS011;4992;51.628;6.664;2022-08-16T01:16:37;5.00;;;3.08;;
9906;SDS011;4992;51.628;6.664;2022-08-16T01:19:12;7.93;;;3.17;;
9906;SDS011;4992;51.628;6.664;2022-08-16T01:22:05;3.40;;;3.10;;
9906;SDS011;4992;51.628;6.664;2022-08-16T01:24:50;3.67;;;3.38;;
9906;SDS011;4992;51.628;6.664;2022-08-16T01:27:22;4.38;;;3.75;;
9906;SDS011;4992;51.628;6.664;2022-08-16T01:29:56;5.75;;;3.55;;
9906;SDS011;4992;51.628;6.664;2022-08-16T01:32:32;4.57;;;3.22;;
9906;SDS011;4992;51.628;6.664;2022-08-16T01:35:06;4.22;;;3.05;;
9906;SDS011;4992;51.628;6.664;2022-08-16T01:37:40;5.32;;;3.75;;
9906;SDS011;4992;51.628;6.664;2022-08-16T01:40:17;4.53;;;3.03;;
9906;SDS011;4992;51.628;6.664;2022-08-16T01:42:44;5.22;;;3.72;;
9906;SDS011;4992;51.628;6.664;2022-08-16T01:45:12;4.60;;;3.92;;
9906;SDS011;4992;51.628;6.664;2022-08-16T01:47:38;5.32;;;3.25;;
9906;SDS011;4992;51.628;6.664;2022-08-16T01:50:06;3.83;;;2.88;;
9906;SDS011;4992;51.628;6.664;2022-08-16T01:52:33;3.55;;;3.25;;
9906;SDS011;4992;51.628;6.664;2022-08-16T01:55:01;13.70;;;4.00;;
9906;SDS011;4992;51.628;6.664;2022-08-16T01:57:28;2.92;;;2.72;;
9906;SDS011;4992;51.628;6.664;2022-08-16T01:59:53;4.72;;;3.30;;
9906;SDS011;4992;51.628;6.664;2022-08-16T02:02:19;3.40;;;3.10;;
9906;SDS011;4992;51.628;6.664;2022-08-16T02:04:47;3.75;;;3.45;;
9906;SDS011;4992;51.628;6.664;2022-08-16T02:07:12;5.68;;;3.40;;
9906;SDS011;4992;51.628;6.664;2022-08-16T02:09:39;5.30;;;3.55;;
9906;SDS011;4992;51.628;6.664;2022-08-16T02:12:06;3.58;;;3.35;;
9906;SDS011;4992;51.628;6.664;2022-08-16T02:14:33;3.47;;;3.17;;
9906;SDS011;4992;51.628;6.664;2022-08-16T02:17:01;4.03;;;3.35;;
9906;SDS011;4992;51.628;6.664;2022-08-16T02:19:30;5.40;;;3.28;;
9906;SDS011;4992;51.628;6.664;2022-08-16T02:21:57;3.72;;;2.92;;
9906;SDS011;4992;51.628;6.664;2022-08-16T02:24:23;4.47;;;3.20;;
9906;SDS011;4992;51.628;6.664;2022-08-16T02:26:49;3.97;;;3.28;;
9906;SDS011;4992;51.628;6.664;2022-08-16T02:29:15;3.75;;;3.38;;
9906;SDS011;4992;51.628;6.664;2022-08-16T02:31:43;4.03;;;3.35;;
9906;SDS011;4992;51.628;6.664;2022-08-16T02:34:09;3.85;;;3.53;;
9906;SDS011;4992;51.628;6.664;2022-08-16T02:36:36;5.40;;;3.65;;
9906;SDS011;4992;51.628;6.664;2022-08-16T02:39:02;4.93;;;3.55;;
9906;SDS011;4992;51.628;6.664;2022-08-16T02:41:29;4.82;;;3.50;;
9906;SDS011;4992;51.628;6.664;2022-08-16T02:43:54;4.22;;;3.55;;
9906;SDS011;4992;51.628;6.664;2022-08-16T02:46:20;3.50;;;3.20;;
9906;SDS011;4992;51.628;6.664;2022-08-16T02:48:46;3.90;;;3.55;;
9906;SDS011;4992;51.628;6.664;2022-08-16T02:51:11;3.90;;;3.47;;
9906;SDS011;4992;51.628;6.664;2022-08-16T02:53:39;3.67;;;3.38;;
9906;SDS011;4992;51.628;6.664;2022-08-16T02:56:07;4.05;;;3.67;;
9906;SDS011;4992;51.628;6.664;2022-08-16T02:58:35;4.18;;;3.13;;
9906;SDS011;4992;51.628;6.664;2022-08-16T03:01:00;5.93;;;3.97;;
9906;SDS011;4992;51.628;6.664;2022-08-16T03:03:26;4.22;;;3.50;;
9906;SDS011;4992;51.628;6.664;2022-08-16T03:05:52;5.30;;;3.97;;
9906;SDS011;4992;51.628;6.664;2022-08-16T03:08:20;4.07;;;3.40;;
9906;SDS011;4992;51.628;6.664;2022-08-16T03:10:46;4.22;;;3.83;;
9906;SDS011;4992;51.628;6.664;2022-08-16T03:13:13;5.93;;;3.92;;
9906;SDS011;4992;51.628;6.664;2022-08-16T03:15:41;5.80;;;3.92;;
9906;SDS011;4992;51.628;6.664;2022-08-16T03:18:07;4.10;;;3.70;;
9906;SDS011;4992;51.628;6.664;2022-08-16T03:20:33;3.70;;;3.40;;
9906;SDS011;4992;51.628;6.664;2022-08-16T03:22:59;5.93;;;4.13;;
9906;SDS011;4992;51.628;6.664;2022-08-16T03:25:25;4.47;;;3.90;;
9906;SDS011;4992;51.628;6.664;2022-08-16T03:27:50;5.75;;;3.67;;
9906;SDS011;4992;51.628;6.664;2022-08-16T03:30:18;5.80;;;3.83;;
9906;SDS011;4992;51.628;6.664;2022-08-16T03:32:46;4.60;;;4.13;;
9906;SDS011;4992;51.628;6.664;2022-08-16T03:35:14;6.18;;;3.58;;
9906;SDS011;4992;51.628;6.664;2022-08-16T03:37:41;4.00;;;3.60;;
9906;SDS011;4992;51.628;6.664;2022-08-16T03:40:09;5.75;;;4.18;;
9906;SDS011;4992;51.628;6.664;2022-08-16T03:42:36;4.18;;;3.35;;
9906;SDS011;4992;51.628;6.664;2022-08-16T03:45:02;3.80;;;3.50;;
9906;SDS011;4992;51.628;6.664;2022-08-16T03:47:28;4.93;;;3.72;;
9906;SDS011;4992;51.628;6.664;2022-08-16T03:49:54;4.03;;;3.65;;
9906;SDS011;4992;51.628;6.664;2022-08-16T03:52:21;4.35;;;3.88;;
9906;SDS011;4992;51.628;6.664;2022-08-16T03:54:47;4.35;;;3.95;;
9906;SDS011;4992;51.628;6.664;2022-08-16T03:57:13;4.28;;;3.88;;
9906;SDS011;4992;51.628;6.664;2022-08-16T03:59:39;5.25;;;4.30;;
9906;SDS011;4992;51.628;6.664;2022-08-16T04:02:05;4.55;;;4.13;;
9906;SDS011;4992;51.628;6.664;2022-08-16T04:04:31;4.40;;;4.00;;
9906;SDS011;4992;51.628;6.664;2022-08-16T04:07:00;5.22;;;4.15;;
9906;SDS011;4992;51.628;6.664;2022-08-16T04:09:28;5.20;;;4.38;;
9906;SDS011;4992;51.628;6.664;2022-08-16T04:11:54;4.20;;;3.90;;
9906;SDS011;4992;51.628;6.664;2022-08-16T04:14:20;6.20;;;4.95;;
9906;SDS011;4992;51.628;6.664;2022-08-16T04:16:45;4.35;;;3.95;;
9906;SDS011;4992;51.628;6.664;2022-08-16T04:19:11;4.53;;;4.13;;
9906;SDS011;4992;51.628;6.664;2022-08-16T04:21:36;6.15;;;4.45;;
9906;SDS011;4992;51.628;6.664;2022-08-16T04:24:02;5.20;;;4.05;;
9906;SDS011;4992;51.628;6.664;2022-08-16T04:26:28;5.78;;;4.00;;
9906;SDS011;4992;51.628;6.664;2022-08-16T04:28:55;4.57;;;3.70;;
9906;SDS011;4992;51.628;6.664;2022-08-16T04:31:20;5.05;;;3.88;;
9906;SDS011;4992;51.628;6.664;2022-08-16T04:33:46;4.75;;;4.10;;
9906;SDS011;4992;51.628;6.664;2022-08-16T04:36:11;5.32;;;3.50;;
9906;SDS011;4992;51.628;6.664;2022-08-16T04:38:37;6.60;;;4.30;;
9906;SDS011;4992;51.628;6.664;2022-08-16T04:41:02;5.18;;;4.15;;
9906;SDS011;4992;51.628;6.664;2022-08-16T04:43:28;4.43;;;3.55;;
9906;SDS011;4992;51.628;6.664;2022-08-16T04:45:54;4.78;;;3.97;;
9906;SDS011;4992;51.628;6.664;2022-08-16T04:48:19;4.10;;;3.70;;
9906;SDS011;4992;51.628;6.664;2022-08-16T04:50:45;4.80;;;4.00;;
9906;SDS011;4992;51.628;6.664;2022-08-16T04:53:10;6.50;;;4.20;;
9906;SDS011;4992;51.628;6.664;2022-08-16T04:55:36;4.82;;;4.20;;
9906;SDS011;4992;51.628;6.664;2022-08-16T04:58:02;4.15;;;3.38;;
9906;SDS011;4992;51.628;6.664;2022-08-16T05:00:28;4.50;;;4.07;;
9906;SDS011;4992;51.628;6.664;2022-08-16T05:02:58;4.70;;;3.42;;
9906;SDS011;4992;51.628;6.664;2022-08-16T05:05:26;3.95;;;3.65;;
9906;SDS011;4992;51.628;6.664;2022-08-16T05:07:52;4.50;;;4.10;;
9906;SDS011;4992;51.628;6.664;2022-08-16T05:10:17;4.53;;;4.10;;
9906;SDS011;4992;51.628;6.664;2022-08-16T05:12:43;4.25;;;3.67;;
9906;SDS011;4992;51.628;6.664;2022-08-16T05:15:09;3.85;;;3.53;;
9906;SDS011;4992;51.628;6.664;2022-08-16T05:17:35;6.85;;;4.07;;
9906;SDS011;4992;51.628;6.664;2022-08-16T05:20:00;6.57;;;4.60;;
9906;SDS011;4992;51.628;6.664;2022-08-16T05:22:27;4.70;;;4.22;;
9906;SDS011;4992;51.628;6.664;2022-08-16T05:24:54;4.05;;;3.67;;
9906;SDS011;4992;51.628;6.664;2022-08-16T05:27:19;8.25;;;3.72;;
9906;SDS011;4992;51.628;6.664;2022-08-16T05:29:45;6.22;;;3.95;;
9906;SDS011;4992;51.628;6.664;2022-08-16T05:32:11;8.95;;;4.35;;
9906;SDS011;4992;51.628;6.664;2022-08-16T05:34:36;4.97;;;3.50;;
9906;SDS011;4992;51.628;6.664;2022-08-16T05:37:02;4.32;;;3.92;;
9906;SDS011;4992;51.628;6.664;2022-08-16T05:39:28;5.07;;;3.55;;
9906;SDS011;4992;51.628;6.664;2022-08-16T05:41:53;5.40;;;3.72;;
9906;SDS011;4992;51.628;6.664;2022-08-16T05:44:20;6.35;;;4.18;;
9906;SDS011;4992;51.628;6.664;2022-08-16T05:46:47;4.95;;;4.43;;
9906;SDS011;4992;51.628;6.664;2022-08-16T05:49:14;6.88;;;4.68;;
9906;SDS011;4992;51.628;6.664;2022-08-16T05:51:41;6.35;;;3.78;;
9906;SDS011;4992;51.628;6.664;2022-08-16T05:54:08;7.82;;;4.50;;
9906;SDS011;4992;51.628;6.664;2022-08-16T05:56:35;5.00;;;4.60;;
9906;SDS011;4992;51.628;6.664;2022-08-16T05:59:00;6.38;;;4.47;;
9906;SDS011;4992;51.628;6.664;2022-08-16T06:01:26;4.85;;;3.92;;
9906;SDS011;4992;51.628;6.664;2022-08-16T06:03:52;5.93;;;4.60;;
9906;SDS011;4992;51.628;6.664;2022-08-16T06:06:17;5.55;;;3.97;;
9906;SDS011;4992;51.628;6.664;2022-08-16T06:08:43;6.40;;;4.07;;
9906;SDS011;4992;51.628;6.664;2022-08-16T06:11:08;4.50;;;4.07;;
9906;SDS011;4992;51.628;6.664;2022-08-16T06:13:34;4.78;;;4.30;;
9906;SDS011;4992;51.628;6.664;2022-08-16T06:16:02;5.22;;;4.68;;
9906;SDS011;4992;51.628;6.664;2022-08-16T06:18:29;7.05;;;4.45;;
9906;SDS011;4992;51.628;6.664;2022-08-16T06:20:54;8.07;;;4.25;;
9906;SDS011;4992;51.628;6.664;2022-08-16T06:23:20;5.18;;;4.40;;
9906;SDS011;4992;51.628;6.664;2022-08-16T06:25:47;11.00;;;4.57;;
9906;SDS011;4992;51.628;6.664;2022-08-16T06:28:13;6.18;;;4.72;;
9906;SDS011;4992;51.628;6.664;2022-08-16T06:30:39;5.38;;;4.95;;
9906;SDS011;4992;51.628;6.664;2022-08-16T06:33:05;6.63;;;4.70;;
9906;SDS011;4992;51.628;6.664;2022-08-16T06:35:31;4.28;;;3.97;;
9906;SDS011;4992;51.628;6.664;2022-08-16T06:37:56;6.05;;;4.88;;
9906;SDS011;4992;51.628;6.664;2022-08-16T06:40:22;17.90;;;6.00;;
9906;SDS011;4992;51.628;6.664;2022-08-16T06:42:49;12.77;;;6.07;;
9906;SDS011;4992;51.628;6.664;2022-08-16T06:45:16;8.95;;;6.22;;
9906;SDS011;4992;51.628;6.664;2022-08-16T06:47:42;6.60;;;5.35;;
9906;SDS011;4992;51.628;6.664;2022-08-16T06:50:07;5.82;;;4.57;;
9906;SDS011;4992;51.628;6.664;2022-08-16T06:52:33;6.85;;;5.10;;
9906;SDS011;4992;51.628;6.664;2022-08-16T06:55:00;6.05;;;4.85;;
9906;SDS011;4992;51.628;6.664;2022-08-16T06:57:26;5.68;;;5.03;;
9906;SDS011;4992;51.628;6.664;2022-08-16T06:59:51;7.22;;;5.85;;
9906;SDS011;4992;51.628;6.664;2022-08-16T07:02:17;5.45;;;4.65;;
9906;SDS011;4992;51.628;6.664;2022-08-16T07:04:43;5.07;;;4.57;;
9906;SDS011;4992;51.628;6.664;2022-08-16T07:07:09;7.18;;;5.00;;
9906;SDS011;4992;51.628;6.664;2022-08-16T07:09:34;7.28;;;6.68;;
9906;SDS011;4992;51.628;6.664;2022-08-16T07:12:00;9.27;;;6.45;;
9906;SDS011;4992;51.628;6.664;2022-08-16T07:14:26;6.90;;;6.22;;
9906;SDS011;4992;51.628;6.664;2022-08-16T07:16:51;7.93;;;6.78;;
9906;SDS011;4992;51.628;6.664;2022-08-16T07:19:18;7.00;;;6.40;;
9906;SDS011;4992;51.628;6.664;2022-08-16T07:21:44;6.15;;;5.65;;
9906;SDS011;4992;51.628;6.664;2022-08-16T07:24:09;7.13;;;5.85;;
9906;SDS011;4992;51.628;6.664;2022-08-16T07:26:35;8.45;;;7.00;;
9906;SDS011;4992;51.628;6.664;2022-08-16T07:29:00;7.25;;;5.80;;
9906;SDS011;4992;51.628;6.664;2022-08-16T07:31:26;6.78;;;6.22;;
9906;SDS011;4992;51.628;6.664;2022-08-16T07:33:52;9.18;;;7.43;;
9906;SDS011;4992;51.628;6.664;2022-08-16T07:36:18;9.18;;;8.23;;
9906;SDS011;4992;51.628;6.664;2022-08-16T07:38:43;9.98;;;7.45;;
9906;SDS011;4992;51.628;6.664;2022-08-16T07:41:09;8.80;;;7.07;;
9906;SDS011;4992;51.628;6.664;2022-08-16T07:43:37;8.80;;;6.85;;
9906;SDS011;4992;51.628;6.664;2022-08-16T07:46:02;8.23;;;6.93;;
9906;SDS011;4992;51.628;6.664;2022-08-16T07:48:28;7.28;;;6.30;;
9906;SDS011;4992;51.628;6.664;2022-08-16T07:50:54;9.32;;;6.60;;
9906;SDS011;4992;51.628;6.664;2022-08-16T07:53:19;7.53;;;6.50;;
9906;SDS011;4992;51.628;6.664;2022-08-16T07:55:45;7.47;;;6.05;;
9906;SDS011;4992;51.628;6.664;2022-08-16T07:58:11;8.18;;;7.38;;
9906;SDS011;4992;51.628;6.664;2022-08-16T08:00:37;10.80;;;6.15;;
9906;SDS011;4992;51.628;6.664;2022-08-16T08:03:03;6.97;;;6.28;;
9906;SDS011;4992;51.628;6.664;2022-08-16T08:05:28;7.22;;;6.50;;
9906;SDS011;4992;51.628;6.664;2022-08-16T08:07:55;6.90;;;5.93;;
9906;SDS011;4992;51.628;6.664;2022-08-16T08:10:21;9.90;;;5.57;;
9906;SDS011;4992;51.628;6.664;2022-08-16T08:12:49;8.45;;;5.45;;
9906;SDS011;4992;51.628;6.664;2022-08-16T08:15:16;13.40;;;6.15;;
9906;SDS011;4992;51.628;6.664;2022-08-16T08:17:42;11.10;;;5.82;;
9906;SDS011;4992;51.628;6.664;2022-08-16T08:20:09;9.23;;;5.15;;
9906;SDS011;4992;51.628;6.664;2022-08-16T08:22:37;9.00;;;5.63;;
9906;SDS011;4992;51.628;6.664;2022-08-16T08:25:03;9.50;;;5.65;;
9906;SDS011;4992;51.628;6.664;2022-08-16T08:27:29;11.98;;;5.90;;
9906;SDS011;4992;51.628;6.664;2022-08-16T08:29:55;6.15;;;5.65;;
9906;SDS011;4992;51.628;6.664;2022-08-16T08:32:22;7.75;;;5.25;;
9906;SDS011;4992;51.628;6.664;2022-08-16T08:34:51;8.35;;;6.35;;
9906;SDS011;4992;51.628;6.664;2022-08-16T08:37:16;6.22;;;5.60;;
9906;SDS011;4992;51.628;6.664;2022-08-16T08:39:42;6.05;;;5.50;;
9906;SDS011;4992;51.628;6.664;2022-08-16T08:42:07;4.97;;;4.57;;
9906;SDS011;4992;51.628;6.664;2022-08-16T08:44:33;8.30;;;5.68;;
9906;SDS011;4992;51.628;6.664;2022-08-16T08:47:00;7.47;;;5.32;;
9906;SDS011;4992;51.628;6.664;2022-08-16T08:49:27;7.03;;;5.03;;
9906;SDS011;4992;51.628;6.664;2022-08-16T08:51:54;7.78;;;5.53;;
9906;SDS011;4992;51.628;6.664;2022-08-16T08:54:20;7.07;;;5.90;;
9906;SDS011;4992;51.628;6.664;2022-08-16T08:56:46;7.47;;;5.40;;
9906;SDS011;4992;51.628;6.664;2022-08-16T08:59:12;5.50;;;4.93;;
9906;SDS011;4992;51.628;6.664;2022-08-16T09:01:38;7.43;;;5.90;;
9906;SDS011;4992;51.628;6.664;2022-08-16T09:04:05;5.50;;;4.80;;
9906;SDS011;4992;51.628;6.664;2022-08-16T09:06:31;6.85;;;4.47;;
9906;SDS011;4992;51.628;6.664;2022-08-16T09:08:58;6.43;;;5.82;;
9906;SDS011;4992;51.628;6.664;2022-08-16T09:11:25;5.45;;;4.80;;
9906;SDS011;4992;51.628;6.664;2022-08-16T09:13:51;8.02;;;4.53;;
9906;SDS011;4992;51.628;6.664;2022-08-16T09:16:17;7.55;;;4.80;;
9906;SDS011;4992;51.628;6.664;2022-08-16T09:18:43;6.53;;;4.47;;
9906;SDS011;4992;51.628;6.664;2022-08-16T09:21:09;7.32;;;4.10;;
9906;SDS011;4992;51.628;6.664;2022-08-16T09:23:36;5.28;;;4.70;;
9906;SDS011;4992;51.628;6.664;2022-08-16T09:26:04;6.13;;;4.25;;
9906;SDS011;4992;51.628;6.664;2022-08-16T09:28:31;7.03;;;4.57;;
9906;SDS011;4992;51.628;6.664;2022-08-16T09:30:57;6.78;;;4.45;;
9906;SDS011;4992;51.628;6.664;2022-08-16T09:33:23;3.80;;;3.38;;
9906;SDS011;4992;51.628;6.664;2022-08-16T09:35:49;4.45;;;3.70;;
9906;SDS011;4992;51.628;6.664;2022-08-16T09:38:14;3.97;;;3.60;;
9906;SDS011;4992;51.628;6.664;2022-08-16T09:40:40;4.72;;;4.07;;
9906;SDS011;4992;51.628;6.664;2022-08-16T09:43:08;5.50;;;3.65;;
9906;SDS011;4992;51.628;6.664;2022-08-16T09:45:38;4.30;;;3.80;;
9906;SDS011;4992;51.628;6.664;2022-08-16T09:48:06;4.15;;;3.60;;
9906;SDS011;4992;51.628;6.664;2022-08-16T09:50:32;7.30;;;3.22;;
9906;SDS011;4992;51.628;6.664;2022-08-16T09:52:59;4.50;;;3.55;;
9906;SDS011;4992;51.628;6.664;2022-08-16T09:55:25;7.35;;;3.67;;
9906;SDS011;4992;51.628;6.664;2022-08-16T09:57:51;4.95;;;3.25;;
9906;SDS011;4992;51.628;6.664;2022-08-16T10:00:16;6.85;;;3.63;;
9906;SDS011;4992;51.628;6.664;2022-08-16T10:02:42;4.97;;;3.50;;
9906;SDS011;4992;51.628;6.664;2022-08-16T10:05:08;6.85;;;3.25;;
9906;SDS011;4992;51.628;6.664;2022-08-16T10:07:35;3.22;;;2.80;;
9906;SDS011;4992;51.628;6.664;2022-08-16T10:10:01;4.80;;;3.58;;
9906;SDS011;4992;51.628;6.664;2022-08-16T10:12:28;4.35;;;3.10;;
9906;SDS011;4992;51.628;6.664;2022-08-16T10:15:14;3.67;;;3.38;;
9906;SDS011;4992;51.628;6.664;2022-08-16T10:17:43;4.10;;;2.60;;
9906;SDS011;4992;51.628;6.664;2022-08-16T10:20:09;3.80;;;2.70;;
9906;SDS011;4992;51.628;6.664;2022-08-16T10:22:36;3.40;;;3.10;;
9906;SDS011;4992;51.628;6.664;2022-08-16T10:25:02;3.63;;;2.75;;
9906;SDS011;4992;51.628;6.664;2022-08-16T10:27:29;2.65;;;2.45;;
9906;SDS011;4992;51.628;6.664;2022-08-16T10:29:54;4.03;;;2.80;;
9906;SDS011;4992;51.628;6.664;2022-08-16T10:32:20;4.28;;;3.28;;
9906;SDS011;4992;51.628;6.664;2022-08-16T10:34:45;5.13;;;2.67;;
9906;SDS011;4992;51.628;6.664;2022-08-16T10:37:11;5.47;;;2.78;;
9906;SDS011;4992;51.628;6.664;2022-08-16T10:39:37;2.95;;;2.72;;
9906;SDS011;4992;51.628;6.664;2022-08-16T10:42:04;7.45;;;2.80;;
9906;SDS011;4992;51.628;6.664;2022-08-16T10:44:30;5.22;;;2.90;;
9906;SDS011;4992;51.628;6.664;2022-08-16T10:46:56;4.40;;;2.50;;
9906;SDS011;4992;51.628;6.664;2022-08-16T10:49:21;4.07;;;3.10;;
9906;SDS011;4992;51.628;6.664;2022-08-16T10:51:47;2.88;;;2.63;;
9906;SDS011;4992;51.628;6.664;2022-08-16T10:54:13;2.30;;;2.10;;
9906;SDS011;4992;51.628;6.664;2022-08-16T10:56:38;3.40;;;3.00;;
9906;SDS011;4992;51.628;6.664;2022-08-16T10:59:04;3.70;;;2.40;;
9906;SDS011;4992;51.628;6.664;2022-08-16T11:01:30;5.28;;;2.78;;
9906;SDS011;4992;51.628;6.664;2022-08-16T11:03:56;3.53;;;2.58;;
9906;SDS011;4992;51.628;6.664;2022-08-16T11:06:22;4.70;;;2.55;;
9906;SDS011;4992;51.628;6.664;2022-08-16T11:08:47;4.28;;;2.90;;
9906;SDS011;4992;51.628;6.664;2022-08-16T11:11:14;4.05;;;2.17;;
9906;SDS011;4992;51.628;6.664;2022-08-16T11:13:40;5.13;;;2.20;;
9906;SDS011;4992;51.628;6.664;2022-08-16T11:16:08;5.85;;;2.72;;
9906;SDS011;4992;51.628;6.664;2022-08-16T11:18:33;3.65;;;2.47;;
9906;SDS011;4992;51.628;6.664;2022-08-16T11:20:59;5.97;;;2.53;;
9906;SDS011;4992;51.628;6.664;2022-08-16T11:23:26;4.05;;;2.65;;
9906;SDS011;4992;51.628;6.664;2022-08-16T11:25:53;5.82;;;2.58;;
9906;SDS011;4992;51.628;6.664;2022-08-16T11:28:19;3.88;;;2.60;;
9906;SDS011;4992;51.628;6.664;2022-08-16T11:30:45;3.47;;;2.65;;
9906;SDS011;4992;51.628;6.664;2022-08-16T11:33:10;4.38;;;2.50;;
9906;SDS011;4992;51.628;6.664;2022-08-16T11:35:37;4.20;;;2.40;;
9906;SDS011;4992;51.628;6.664;2022-08-16T11:38:04;2.60;;;2.40;;
9906;SDS011;4992;51.628;6.664;2022-08-16T11:40:34;5.65;;;2.42;;
9906;SDS011;4992;51.628;6.664;2022-08-16T11:43:11;3.65;;;2.15;;
9906;SDS011;4992;51.628;6.664;2022-08-16T11:45:38;3.40;;;2.08;;
9906;SDS011;4992;51.628;6.664;2022-08-16T11:48:04;2.58;;;1.83;;
9906;SDS011;4992;51.628;6.664;2022-08-16T11:50:30;2.33;;;1.90;;
9906;SDS011;4992;51.628;6.664;2022-08-16T11:52:57;2.67;;;2.30;;
9906;SDS011;4992;51.628;6.664;2022-08-16T11:55:26;2.92;;;2.05;;
9906;SDS011;4992;51.628;6.664;2022-08-16T11:57:52;4.30;;;2.20;;
9906;SDS011;4992;51.628;6.664;2022-08-16T12:00:18;3.80;;;1.70;;
9906;SDS011;4992;51.628;6.664;2022-08-16T12:02:43;2.00;;;1.90;;
9906;SDS011;4992;51.628;6.664;2022-08-16T12:05:10;2.25;;;1.60;;
9906;SDS011;4992;51.628;6.664;2022-08-16T12:07:38;2.83;;;1.70;;
9906;SDS011;4992;51.628;6.664;2022-08-16T12:10:06;2.35;;;1.88;;
9906;SDS011;4992;51.628;6.664;2022-08-16T12:12:34;3.38;;;2.45;;
9906;SDS011;4992;51.628;6.664;2022-08-16T12:15:00;2.10;;;1.70;;
9906;SDS011;4992;51.628;6.664;2022-08-16T12:17:27;1.95;;;1.63;;
9906;SDS011;4992;51.628;6.664;2022-08-16T12:19:54;2.50;;;2.15;;
9906;SDS011;4992;51.628;6.664;2022-08-16T12:22:19;2.83;;;1.98;;
9906;SDS011;4992;51.628;6.664;2022-08-16T12:24:45;5.35;;;2.58;;
9906;SDS011;4992;51.628;6.664;2022-08-16T12:27:15;4.28;;;2.50;;
9906;SDS011;4992;51.628;6.664;2022-08-16T12:29:41;6.85;;;2.95;;
9906;SDS011;4992;51.628;6.664;2022-08-16T12:32:07;3.45;;;2.67;;
9906;SDS011;4992;51.628;6.664;2022-08-16T12:34:32;4.85;;;2.58;;
9906;SDS011;4992;51.628;6.664;2022-08-16T12:36:59;4.97;;;2.47;;
9906;SDS011;4992;51.628;6.664;2022-08-16T12:39:27;3.47;;;2.17;;
9906;SDS011;4992;51.628;6.664;2022-08-16T12:41:53;4.30;;;2.10;;
9906;SDS011;4992;51.628;6.664;2022-08-16T12:44:20;2.92;;;2.38;;
9906;SDS011;4992;51.628;6.664;2022-08-16T12:46:45;5.32;;;3.10;;
9906;SDS011;4992;51.628;6.664;2022-08-16T12:49:31;3.03;;;2.60;;
9906;SDS011;4992;51.628;6.664;2022-08-16T12:51:56;3.90;;;2.42;;
9906;SDS011;4992;51.628;6.664;2022-08-16T12:54:22;3.40;;;2.30;;
9906;SDS011;4992;51.628;6.664;2022-08-16T12:56:48;3.00;;;2.70;;
9906;SDS011;4992;51.628;6.664;2022-08-16T12:59:14;2.33;;;2.13;;
9906;SDS011;4992;51.628;6.664;2022-08-16T13:01:40;4.63;;;2.70;;
9906;SDS011;4992;51.628;6.664;2022-08-16T13:04:06;3.08;;;2.78;;
9906;SDS011;4992;51.628;6.664;2022-08-16T13:06:33;4.75;;;2.90;;
9906;SDS011;4992;51.628;6.664;2022-08-16T13:09:01;4.38;;;2.90;;
9906;SDS011;4992;51.628;6.664;2022-08-16T13:11:42;3.80;;;2.97;;
9906;SDS011;4992;51.628;6.664;2022-08-16T13:14:12;6.85;;;3.78;;
9906;SDS011;4992;51.628;6.664;2022-08-16T13:16:39;2.88;;;2.50;;
9906;SDS011;4992;51.628;6.664;2022-08-16T13:19:06;3.55;;;2.40;;
9906;SDS011;4992;51.628;6.664;2022-08-16T13:21:32;3.45;;;2.00;;
9906;SDS011;4992;51.628;6.664;2022-08-16T13:23:57;2.25;;;2.05;;
9906;SDS011;4992;51.628;6.664;2022-08-16T13:26:23;3.72;;;2.13;;
9906;SDS011;4992;51.628;6.664;2022-08-16T13:28:49;3.72;;;2.33;;
9906;SDS011;4992;51.628;6.664;2022-08-16T13:31:15;3.15;;;2.08;;
9906;SDS011;4992;51.628;6.664;2022-08-16T13:33:41;6.60;;;2.45;;
9906;SDS011;4992;51.628;6.664;2022-08-16T13:36:08;3.35;;;2.38;;
9906;SDS011;4992;51.628;6.664;2022-08-16T13:38:35;3.20;;;2.15;;
9906;SDS011;4992;51.628;6.664;2022-08-16T13:41:02;3.03;;;2.00;;
9906;SDS011;4992;51.628;6.664;2022-08-16T13:43:31;2.88;;;2.20;;
9906;SDS011;4992;51.628;6.664;2022-08-16T13:45:58;2.35;;;2.08;;
9906;SDS011;4992;51.628;6.664;2022-08-16T13:48:26;2.88;;;2.00;;
9906;SDS011;4992;51.628;6.664;2022-08-16T13:50:53;1.85;;;1.67;;
9906;SDS011;4992;51.628;6.664;2022-08-16T13:53:19;2.65;;;1.75;;
9906;SDS011;4992;51.628;6.664;2022-08-16T13:55:45;2.17;;;1.90;;
9906;SDS011;4992;51.628;6.664;2022-08-16T13:58:11;5.60;;;1.92;;
9906;SDS011;4992;51.628;6.664;2022-08-16T14:00:37;2.78;;;2.05;;
9906;SDS011;4992;51.628;6.664;2022-08-16T14:03:02;2.47;;;2.10;;
9906;SDS011;4992;51.628;6.664;2022-08-16T14:05:28;3.03;;;2.20;;
9906;SDS011;4992;51.628;6.664;2022-08-16T14:07:53;2.05;;;1.92;;
9906;SDS011;4992;51.628;6.664;2022-08-16T14:10:19;3.72;;;2.45;;
9906;SDS011;4992;51.628;6.664;2022-08-16T14:12:45;2.47;;;1.80;;
9906;SDS011;4992;51.628;6.664;2022-08-16T14:15:12;3.45;;;2.20;;
9906;SDS011;4992;51.628;6.664;2022-08-16T14:17:39;3.13;;;2.28;;
9906;SDS011;4992;51.628;6.664;2022-08-16T14:20:05;3.63;;;1.75;;
9906;SDS011;4992;51.628;6.664;2022-08-16T14:22:33;2.47;;;1.90;;
9906;SDS011;4992;51.628;6.664;2022-08-16T14:25:02;1.63;;;1.42;;
9906;SDS011;4992;51.628;6.664;2022-08-16T14:27:30;3.55;;;1.70;;
9906;SDS011;4992;51.628;6.664;2022-08-16T14:29:56;3.17;;;2.00;;
9906;SDS011;4992;51.628;6.664;2022-08-16T14:32:23;2.55;;;2.03;;
9906;SDS011;4992;51.628;6.664;2022-08-16T14:34:52;4.15;;;2.20;;
9906;SDS011;4992;51.628;6.664;2022-08-16T14:37:18;1.90;;;1.80;;
9906;SDS011;4992;51.628;6.664;2022-08-16T14:39:44;2.33;;;1.92;;
9906;SDS011;4992;51.628;6.664;2022-08-16T14:42:11;3.22;;;2.00;;
9906;SDS011;4992;51.628;6.664;2022-08-16T14:44:40;3.08;;;1.95;;
9906;SDS011;4992;51.628;6.664;2022-08-16T14:47:06;2.50;;;2.30;;
9906;SDS011;4992;51.628;6.664;2022-08-16T14:49:32;2.17;;;1.80;;
9906;SDS011;4992;51.628;6.664;2022-08-16T14:52:00;2.42;;;2.08;;
9906;SDS011;4992;51.628;6.664;2022-08-16T14:54:27;3.35;;;2.03;;
9906;SDS011;4992;51.628;6.664;2022-08-16T14:56:52;3.03;;;2.20;;
9906;SDS011;4992;51.628;6.664;2022-08-16T14:59:18;3.53;;;2.15;;
9906;SDS011;4992;51.628;6.664;2022-08-16T15:01:43;2.63;;;2.22;;
9906;SDS011;4992;51.628;6.664;2022-08-16T15:04:10;2.65;;;2.30;;
9906;SDS011;4992;51.628;6.664;2022-08-16T15:06:36;2.80;;;2.38;;
9906;SDS011;4992;51.628;6.664;2022-08-16T15:09:01;3.55;;;2.45;;
9906;SDS011;4992;51.628;6.664;2022-08-16T15:11:27;2.33;;;2.20;;